Time;durP1;ratioP1;P1;durP2;ratioP2;P2;SDS_P1;SDS_P2;PMS_P1;PMS_P2;Temp;Humidity;BMP_temperature;BMP_pressure;BME280_temperature;BME280_humidity;BME280_pressure;Samples;Min_cycle;Max_cycle;Signal;HPM_P1;HPM_P2
2022/06/10 00:00:48;;;;;;;6.58;4.00;;;;;;;18.36;66.59;100177.62;2208084;80;27701;-71
2022/06/10 00:03:50;;;;;;;7.87;4.05;;;;;;;18.35;66.70;100185.87;2208069;80;29308;-71
2022/06/10 00:06:52;;;;;;;10.72;3.80;;;;;;;18.35;66.76;100186.75;2207561;80;31896;-70
2022/06/10 00:09:54;;;;;;;5.10;4.08;;;;;;;18.35;66.78;100192.66;2207942;80;33905;-71
2022/06/10 00:12:56;;;;;;;5.83;3.87;;;;;;;18.33;66.84;100194.15;2207740;80;30130;-70
2022/06/10 00:16:00;;;;;;;8.95;4.50;;;;;;;18.31;67.03;100189.34;2207829;80;27676;-70
2022/06/10 00:19:02;;;;;;;8.63;4.17;;;;;;;18.30;66.98;100190.33;2208361;80;28706;-70
2022/06/10 00:22:04;;;;;;;5.47;4.33;;;;;;;18.28;67.06;100186.04;2207497;80;32006;-71
2022/06/10 00:25:08;;;;;;;4.08;3.67;;;;;;;18.29;67.09;100198.58;2207539;80;34417;-71
2022/06/10 00:28:10;;;;;;;5.50;4.30;;;;;;;18.27;67.22;100204.14;2208013;80;29411;-70
2022/06/10 00:31:14;;;;;;;5.33;4.45;;;;;;;18.26;67.22;100201.58;2208055;80;27551;-70
2022/06/10 00:34:15;;;;;;;5.15;4.37;;;;;;;18.24;67.27;100198.12;2207959;80;28635;-71
2022/06/10 00:37:17;;;;;;;5.70;4.40;;;;;;;18.24;67.35;100201.68;2205756;76;31864;-56
2022/06/10 00:40:24;;;;;;;7.45;4.40;;;;;;;18.20;67.42;100201.09;2202100;80;34233;-57
2022/06/10 00:43:30;;;;;;;4.83;4.10;;;;;;;18.19;67.46;100204.78;2202097;80;29099;-57
2022/06/10 00:46:35;;;;;;;5.92;4.25;;;;;;;18.18;67.53;100210.34;2202797;80;27755;-57
2022/06/10 00:49:37;;;;;;;6.62;4.45;;;;;;;18.15;67.62;100216.87;2202373;80;29588;-57
2022/06/10 00:52:42;;;;;;;6.67;4.78;;;;;;;18.14;67.63;100221.92;2202115;80;31885;-57
2022/06/10 00:55:45;;;;;;;6.72;4.55;;;;;;;18.13;67.77;100218.00;2202550;80;33787;-59
2022/06/10 00:59:01;;;;;;;6.95;5.30;;;;;;;18.10;67.71;100222.31;2202480;80;29310;-57
2022/06/10 01:02:11;;;;;;;7.70;4.75;;;;;;;18.09;67.91;100226.89;2202597;80;27665;-57
2022/06/10 01:05:18;;;;;;;6.12;4.97;;;;;;;18.07;67.90;100226.15;2202487;80;28810;-57
2022/06/10 01:08:21;;;;;;;5.92;5.28;;;;;;;18.06;67.98;100225.27;2202563;80;31824;-57
2022/06/10 01:11:43;;;;;;;6.10;4.72;;;;;;;18.07;68.06;100231.56;2191531;80;34270;-60
2022/06/10 01:15:13;;;;;;;8.03;4.85;;;;;;;18.06;68.11;100229.33;2202645;80;29731;-57
2022/06/10 01:18:59;;;;;;;9.70;4.97;;;;;;;18.05;68.12;100231.67;2202381;80;27651;-57
2022/06/10 01:22:41;;;;;;;5.83;4.92;;;;;;;18.05;68.19;100238.96;2202242;80;29879;-57
2022/06/10 01:26:08;;;;;;;5.45;4.90;;;;;;;18.03;68.24;100243.17;2201956;80;31072;-61
2022/06/10 01:29:33;;;;;;;4.67;4.22;;;;;;;18.01;68.19;100247.85;2202150;80;34303;-57
2022/06/10 01:33:12;;;;;;;5.08;4.58;;;;;;;18.02;68.37;100251.41;2200840;80;29857;-57
2022/06/10 01:36:51;;;;;;;5.40;4.90;;;;;;;17.99;68.33;100259.31;2201143;80;27719;-57
2022/06/10 01:40:07;;;;;;;8.60;4.50;;;;;;;17.97;68.41;100269.38;2181265;80;29252;-57
2022/06/10 01:43:39;;;;;;;5.87;4.60;;;;;;;17.95;68.57;100269.14;2178164;81;31342;-57
2022/06/10 01:46:52;;;;;;;4.42;4.03;;;;;;;17.94;68.60;100273.69;2143536;83;32991;-60
2022/06/10 01:50:19;;;;;;;6.50;4.75;;;;;;;17.92;68.61;100272.47;2143340;83;30517;-58
2022/06/10 01:53:31;;;;;;;5.70;4.92;;;;;;;17.91;68.66;100283.42;2142461;83;27650;-56
2022/06/10 01:56:44;;;;;;;6.55;4.40;;;;;;;17.89;68.64;100279.96;2178750;81;28688;-58
2022/06/10 01:59:58;;;;;;;7.08;4.78;;;;;;;17.88;68.83;100285.89;2143302;83;31612;-57
2022/06/10 02:03:06;;;;;;;6.73;4.50;;;;;;;17.87;68.75;100295.52;2141894;82;33456;-56
2022/06/10 02:06:18;;;;;;;8.50;5.47;;;;;;;17.85;68.88;100290.70;2142954;82;29339;-58
2022/06/10 02:09:41;;;;;;;6.92;4.60;;;;;;;17.84;68.88;100297.95;2143398;83;27729;-58
2022/06/10 02:12:48;;;;;;;6.55;5.53;;;;;;;17.82;68.91;100300.44;2142648;83;28638;-57
2022/06/10 02:15:53;;;;;;;7.55;5.00;;;;;;;17.79;69.04;100298.81;2178578;81;31149;-57
2022/06/10 02:19:01;;;;;;;;;;;;;;;17.77;69.08;100300.81;2181275;81;33865;-58
2022/06/10 02:22:13;;;;;;;7.25;5.03;;;;;;;17.76;69.19;100306.70;2178527;81;29779;-56
2022/06/10 02:25:19;;;;;;;6.45;4.83;;;;;;;17.71;69.18;100314.33;2142953;82;27688;-57
2022/06/10 02:28:26;;;;;;;6.35;5.05;;;;;;;17.68;69.39;100318.66;2143850;83;29480;-57
2022/06/10 02:31:35;;;;;;;5.22;4.47;;;;;;;17.67;69.35;100322.83;2143266;81;33687;-57
2022/06/10 02:34:38;;;;;;;6.30;5.58;;;;;;;17.66;69.47;100328.75;2143645;82;33339;-57
2022/06/10 02:38:17;;;;;;;5.58;5.05;;;;;;;17.65;69.51;100331.09;2143440;81;30486;-57
2022/06/10 02:41:42;;;;;;;5.25;4.75;;;;;;;17.65;69.58;100334.27;2143265;82;27630;-57
2022/06/10 02:44:49;;;;;;;7.10;5.22;;;;;;;17.62;69.67;100332.69;2143387;83;29883;-58
2022/06/10 02:48:12;;;;;;;6.85;5.10;;;;;;;17.61;69.73;100339.08;2142100;83;30973;-57
2022/06/10 02:51:16;;;;;;;7.20;5.42;;;;;;;17.60;69.82;100342.77;2178690;80;33851;-56
2022/06/10 02:54:31;;;;;;;7.20;5.37;;;;;;;17.59;69.92;100348.70;2178698;81;29493;-59
2022/06/10 03:01:16;;;;;;;8.03;5.17;;;;;;;17.55;69.97;100348.56;2178684;81;29122;-57
2022/06/10 03:05:06;;;;;;;7.08;4.87;;;;;;;17.56;70.03;100358.89;2178448;81;31895;-58
2022/06/10 03:08:28;;;;;;;6.15;5.58;;;;;;;17.55;70.05;100358.52;2178120;81;29570;-57
2022/06/10 03:11:56;;;;;;;5.90;5.00;;;;;;;17.55;70.17;100372.06;2178647;81;29326;-58
2022/06/10 03:15:27;;;;;;;7.40;5.08;;;;;;;17.56;70.27;100381.44;2140983;82;27755;-57
2022/06/10 03:18:56;;;;;;;7.58;5.62;;;;;;;17.59;70.37;100383.03;2140953;83;29854;-57
2022/06/10 03:22:09;;;;;;;7.35;5.45;;;;;;;17.61;70.39;100390.55;2141079;83;32345;-57
2022/06/10 03:25:22;;;;;;;7.05;5.22;;;;;;;17.66;70.46;100398.31;2140916;82;34168;-57
2022/06/10 03:28:41;;;;;;;9.63;5.80;;;;;;;17.68;70.60;100402.66;2141285;82;29314;-61
2022/06/10 03:31:47;;;;;;;6.20;5.35;;;;;;;17.72;70.58;100405.47;2140077;82;28297;-57
2022/06/10 03:35:07;;;;;;;9.88;5.55;;;;;;;17.76;70.53;100411.53;2140914;82;29293;-57
2022/06/10 03:38:10;;;;;;;6.95;5.15;;;;;;;17.81;70.54;100415.23;2140633;82;32274;-63
2022/06/10 03:41:31;;;;;;;6.00;5.17;;;;;;;17.85;70.54;100418.93;2164346;82;33827;-56
2022/06/10 03:44:34;;;;;;;6.53;5.92;;;;;;;17.92;70.59;100430.15;2198249;80;29704;-57
2022/06/10 03:47:38;;;;;;;7.28;5.33;;;;;;;17.96;70.49;100430.77;2178402;80;28251;-58
2022/06/10 03:50:41;;;;;;;7.33;6.10;;;;;;;18.00;70.47;100435.88;2202560;80;29090;-57
2022/06/10 03:53:43;;;;;;;6.00;5.45;;;;;;;18.07;70.47;100445.74;2202175;80;32237;-57
2022/06/10 03:56:46;;;;;;;6.47;5.87;;;;;;;18.13;70.30;100447.95;2202134;80;33826;-58
2022/06/10 03:59:49;;;;;;;8.45;5.30;;;;;;;18.21;70.28;100455.00;2202668;80;29550;-56
2022/06/10 04:02:53;;;;;;;5.15;4.65;;;;;;;18.30;70.09;100468.31;2202628;80;28235;-61
2022/06/10 04:05:56;;;;;;;6.95;5.28;;;;;;;18.37;69.93;100463.27;2202645;80;28642;-58
2022/06/10 04:09:00;;;;;;;4.80;4.40;;;;;;;18.47;69.80;100465.59;2202324;80;31937;-56
2022/06/10 04:12:03;;;;;;;5.17;4.35;;;;;;;18.55;69.56;100464.13;2202579;80;33005;-60
2022/06/10 04:15:06;;;;;;;6.28;4.33;;;;;;;18.59;69.33;100465.61;2202560;80;29315;-58
2022/06/10 04:18:08;;;;;;;7.05;4.33;;;;;;;18.64;69.06;100479.17;2202719;80;27643;-57
2022/06/10 04:21:10;;;;;;;5.87;4.33;;;;;;;18.70;68.96;100482.39;2202200;80;29884;-57
2022/06/10 04:24:14;;;;;;;5.78;4.45;;;;;;;18.75;68.69;100489.64;2202308;80;32236;-57
2022/06/10 04:27:15;;;;;;;4.40;3.95;;;;;;;18.80;68.55;100488.27;2202168;80;33173;-57
2022/06/10 04:30:44;;;;;;;4.28;3.72;;;;;;;18.88;68.28;100486.80;2202307;80;30270;-57
2022/06/10 04:33:45;;;;;;;5.22;3.80;;;;;;;18.92;67.91;100490.48;2202401;80;28175;-58
2022/06/10 04:36:48;;;;;;;4.47;4.08;;;;;;;19.00;67.75;100493.11;2202283;80;29510;-59
2022/06/10 04:39:50;;;;;;;5.05;4.05;;;;;;;19.09;67.50;100497.77;2202139;80;32247;-57
2022/06/10 04:42:52;;;;;;;6.15;3.75;;;;;;;19.19;67.42;100496.52;2202176;80;34299;-58
2022/06/10 04:45:55;;;;;;;5.20;3.70;;;;;;;19.32;67.17;100504.52;2202473;80;29329;-58
2022/06/10 04:48:57;;;;;;;6.40;4.03;;;;;;;19.42;66.66;100498.66;2153809;80;27730;-59
2022/06/10 04:51:59;;;;;;;3.72;3.42;;;;;;;19.54;66.51;100507.13;2202925;80;29246;-60
2022/06/10 04:55:01;;;;;;;4.47;3.65;;;;;;;19.68;66.38;100506.48;2202166;80;32242;-58
2022/06/10 04:58:04;;;;;;;4.83;3.47;;;;;;;19.84;66.22;100514.17;2202597;80;32949;-58
2022/06/10 05:01:06;;;;;;;4.95;3.80;;;;;;;19.97;65.88;100516.23;2202504;80;29361;-58
2022/06/10 05:04:08;;;;;;;5.95;3.40;;;;;;;20.08;65.33;100519.91;2202316;80;27776;-59
2022/06/10 05:07:11;;;;;;;3.65;3.27;;;;;;;20.19;65.24;100524.75;2202747;80;28861;-58
2022/06/10 05:10:14;;;;;;;6.47;3.20;;;;;;;20.26;64.58;100534.63;2202624;80;30460;-59
2022/06/10 05:13:17;;;;;;;2.83;2.30;;;;;;;20.47;64.13;100543.25;2202684;80;33958;-58
2022/06/10 05:16:19;;;;;;;3.98;3.30;;;;;;;20.47;64.13;100543.25;2202270;80;30302;-56
2022/06/10 05:19:21;;;;;;;5.15;3.25;;;;;;;20.62;64.10;100545.98;2202589;80;28015;-56
2022/06/10 05:22:24;;;;;;;3.52;3.22;;;;;;;20.83;63.67;100546.47;2202183;80;27662;-56
2022/06/10 05:25:28;;;;;;;4.20;3.00;;;;;;;21.15;62.70;100550.03;2202476;80;31837;-55
2022/06/10 05:28:30;;;;;;;4.87;3.58;;;;;;;21.93;62.86;100554.23;2202466;80;33036;-55
2022/06/10 05:31:32;;;;;;;3.80;3.22;;;;;;;22.66;62.36;100551.99;2202156;80;30560;-56
2022/06/10 05:34:46;;;;;;;3.40;2.70;;;;;;;23.15;60.43;100561.33;2202439;80;28203;-55
2022/06/10 05:37:49;;;;;;;3.70;3.30;;;;;;;23.29;59.68;100558.11;2202730;80;29881;-56
2022/06/10 05:40:51;;;;;;;4.17;3.22;;;;;;;23.44;59.02;100564.41;2184634;80;31072;-57
2022/06/10 05:43:54;;;;;;;3.77;3.30;;;;;;;23.57;58.32;100564.05;2178140;81;33103;-57
2022/06/10 05:46:57;;;;;;;5.47;3.30;;;;;;;23.70;57.95;100578.20;2178242;81;30537;-57
2022/06/10 05:50:03;;;;;;;3.40;3.10;;;;;;;23.82;57.09;100578.83;2178899;81;27659;-57
2022/06/10 05:53:10;;;;;;;4.20;2.85;;;;;;;24.16;57.01;100585.52;2178719;81;28827;-57
2022/06/10 05:56:12;;;;;;;2.75;2.50;;;;;;;25.10;56.85;100583.89;2143573;83;31074;-57
2022/06/10 05:59:14;;;;;;;2.55;2.35;;;;;;;26.23;55.91;100588.64;2143434;83;33459;-57
2022/06/10 06:02:16;;;;;;;3.05;2.75;;;;;;;27.14;54.35;100586.58;2143228;83;30599;-57
2022/06/10 06:05:20;;;;;;;4.65;2.75;;;;;;;27.99;51.19;100587.34;2142643;83;27551;-57
2022/06/10 06:08:24;;;;;;;3.75;3.45;;;;;;;28.20;49.63;100586.67;2178681;81;28801;-58
2022/06/10 06:11:26;;;;;;;2.63;2.40;;;;;;;28.24;49.55;100588.53;2143878;83;31021;-56
2022/06/10 06:14:29;;;;;;;3.05;2.70;;;;;;;27.99;49.53;100593.69;2142439;83;33379;-56
2022/06/10 06:17:30;;;;;;;3.47;2.87;;;;;;;27.62;48.80;100599.97;2178529;81;29359;-56
2022/06/10 06:20:33;;;;;;;5.60;2.65;;;;;;;27.15;48.34;100605.33;2143666;83;27657;-56
2022/06/10 06:23:35;;;;;;;4.25;3.02;;;;;;;26.74;48.03;100614.53;2142558;83;28880;-56
2022/06/10 06:26:37;;;;;;;3.47;2.55;;;;;;;26.35;47.98;100622.99;2178261;81;32337;-56
2022/06/10 06:29:40;;;;;;;3.75;2.67;;;;;;;26.08;48.58;100609.89;2178168;81;34304;-56
2022/06/10 06:32:42;;;;;;;3.05;2.40;;;;;;;26.03;48.90;100619.67;2178526;81;29141;-57
2022/06/10 06:35:51;;;;;;;4.50;2.60;;;;;;;26.06;48.71;100624.83;2178727;81;27575;-56
2022/06/10 06:38:54;;;;;;;5.45;3.27;;;;;;;26.12;48.97;100631.55;2178644;81;29305;-56
2022/06/10 06:41:56;;;;;;;3.62;3.15;;;;;;;26.15;47.86;100629.84;2156673;80;32353;-56
2022/06/10 06:44:58;;;;;;;3.50;3.20;;;;;;;26.22;48.04;100636.39;2155791;82;33876;-56
2022/06/10 06:48:05;;;;;;;4.22;3.02;;;;;;;26.10;47.32;100635.83;2155813;82;30694;-62
2022/06/10 06:51:09;;;;;;;4.62;3.00;;;;;;;25.98;47.11;100647.64;2156085;82;27662;-59
2022/06/10 06:54:13;;;;;;;4.45;3.05;;;;;;;25.91;47.80;100655.70;2155376;82;27638;-56
2022/06/10 06:57:17;;;;;;;3.33;3.02;;;;;;;25.82;47.86;100658.59;2133649;83;31220;-59
2022/06/10 07:00:22;;;;;;;8.55;3.47;;;;;;;25.70;47.97;100673.12;2134388;83;32527;-58
2022/06/10 07:03:26;;;;;;;4.80;2.80;;;;;;;25.67;47.96;100672.95;2133845;83;29605;-58
2022/06/10 07:06:32;;;;;;;4.25;3.30;;;;;;;26.09;48.23;100663.78;2133461;83;27642;-58
2022/06/10 07:09:35;;;;;;;5.25;3.10;;;;;;;26.80;47.40;100672.09;2134399;83;28644;-59
2022/06/10 07:12:38;;;;;;;3.22;2.92;;;;;;;27.58;47.09;100671.89;2134314;83;31193;-59
2022/06/10 07:15:43;;;;;;;4.25;2.65;;;;;;;28.25;46.15;100668.27;2134215;83;32934;-58
2022/06/10 07:18:45;;;;;;;3.77;2.58;;;;;;;28.50;45.92;100678.56;2134249;83;30462;-58
2022/06/10 07:21:46;;;;;;;3.10;2.60;;;;;;;29.03;45.02;100681.90;2134284;83;27656;-57
2022/06/10 07:24:49;;;;;;;2.58;2.33;;;;;;;29.63;44.22;100677.76;2155923;82;29783;-57
2022/06/10 07:27:56;;;;;;;2.70;2.50;;;;;;;30.23;43.91;100687.82;2096311;84;31122;-58
2022/06/10 07:30:56;;;;;;;3.60;3.17;;;;;;;30.85;42.70;100690.44;2155689;82;33804;-57
2022/06/10 07:34:03;;;;;;;3.60;2.60;;;;;;;31.38;42.12;100682.16;2096621;84;30380;-58
2022/06/10 07:37:14;;;;;;;5.30;3.15;;;;;;;31.77;41.12;100680.67;2156250;82;27532;-58
2022/06/10 07:43:53;;;;;;;3.60;2.33;;;;;;;31.68;39.19;100695.75;2141607;83;28211;-57
2022/06/10 07:47:04;;;;;;;3.22;2.40;;;;;;;31.65;38.86;100685.92;2178285;80;33433;-59
2022/06/10 07:50:11;;;;;;;2.08;1.87;;;;;;;31.43;38.26;100690.72;2178225;81;30553;-59
2022/06/10 07:53:14;;;;;;;3.87;2.20;;;;;;;30.83;38.05;100690.30;2178691;81;27654;-58
2022/06/10 07:56:18;;;;;;;;;;;;;;;30.73;38.66;100692.89;2146156;83;28616;-57
2022/06/10 07:59:20;;;;;;;2.20;2.02;;;;;;;30.86;37.76;100691.28;2143507;83;31826;-57
2022/06/10 08:02:23;;;;;;;2.92;2.27;;;;;;;30.78;37.53;100691.45;2142670;83;32962;-58
2022/06/10 08:05:25;;;;;;;4.37;1.85;;;;;;;30.78;37.68;100691.45;2178327;81;30090;-57
2022/06/10 08:08:27;;;;;;;2.33;1.67;;;;;;;30.78;37.16;100698.36;2143266;83;27675;-58
2022/06/10 08:11:30;;;;;;;3.50;1.62;;;;;;;30.67;37.59;100700.59;2143246;83;29478;-58
2022/06/10 08:14:34;;;;;;;2.67;1.60;;;;;;;30.43;36.79;100693.54;2142555;83;31403;-58
2022/06/10 08:17:36;;;;;;;2.70;1.80;;;;;;;30.16;37.14;100693.28;2178599;81;32924;-59
2022/06/10 08:24:06;;;;;;;3.35;1.50;;;;;;;29.70;36.39;100696.62;2142468;83;27641;-57
2022/06/10 08:27:09;;;;;;;4.00;1.50;;;;;;;29.53;36.41;100693.23;2178895;80;28630;-58
2022/06/10 08:30:15;;;;;;;1.90;1.30;;;;;;;29.45;36.41;100698.00;2178446;81;31026;-58
2022/06/10 08:33:20;;;;;;;2.90;1.90;;;;;;;29.44;35.94;100698.55;2178581;81;33271;-57
2022/06/10 08:36:22;;;;;;;2.22;1.80;;;;;;;29.42;36.32;100695.11;2178175;81;30624;-57
2022/06/10 08:39:24;;;;;;;2.25;2.05;;;;;;;29.38;36.06;100700.14;2178354;81;27596;-57
2022/06/10 08:42:41;;;;;;;4.33;2.50;;;;;;;29.16;36.42;100702.45;2178217;81;30067;-57
2022/06/10 08:45:55;;;;;;;2.87;2.45;;;;;;;28.95;37.04;100705.41;2178226;81;32066;-57
2022/06/10 08:49:11;;;;;;;5.03;2.35;;;;;;;28.92;37.35;100705.78;2177939;81;33808;-57
2022/06/10 08:52:41;;;;;;;4.53;2.40;;;;;;;28.88;37.53;100708.58;2178205;81;30516;-58
2022/06/10 08:56:13;;;;;;;2.35;2.17;;;;;;;28.91;36.35;100720.11;2178284;81;27655;-57
2022/06/10 08:59:30;;;;;;;4.75;2.10;;;;;;;29.03;36.59;100715.00;2178601;81;28669;-58
2022/06/10 09:02:52;;;;;;;3.55;2.20;;;;;;;29.36;36.04;100720.20;2178554;81;31809;-57
2022/06/10 09:06:16;;;;;;;2.67;2.10;;;;;;;29.44;35.65;100723.89;2176190;81;30037;-57
2022/06/10 09:09:26;;;;;;;2.75;2.47;;;;;;;29.58;35.92;100727.70;2104769;84;27596;-57
2022/06/10 09:13:05;;;;;;;7.72;2.55;;;;;;;29.54;35.95;100723.06;2142489;82;27737;-58
2022/06/10 09:16:46;;;;;;;4.83;2.95;;;;;;;29.57;35.60;100735.12;2178190;81;29746;-57
2022/06/10 09:20:22;;;;;;;5.12;2.75;;;;;;;29.40;35.48;100722.05;2178206;81;32372;-58
2022/06/10 09:23:39;;;;;;;3.05;2.45;;;;;;;29.43;36.24;100727.19;2112873;84;28713;-57
2022/06/10 09:26:53;;;;;;;4.08;2.85;;;;;;;29.40;36.11;100725.65;2112944;84;29426;-57
2022/06/10 09:29:57;;;;;;;4.90;3.30;;;;;;;29.38;36.45;100718.62;2113502;84;27787;-58
2022/06/10 09:33:43;;;;;;;3.33;2.77;;;;;;;29.51;36.34;100726.23;2113253;84;28686;-57
2022/06/10 09:37:22;;;;;;;6.05;2.65;;;;;;;29.43;36.35;100730.46;2112859;84;32465;-57
2022/06/10 09:41:19;;;;;;;3.40;3.00;;;;;;;29.31;36.42;100732.29;2110617;83;33291;-57
2022/06/10 09:45:02;;;;;;;7.58;2.90;;;;;;;29.18;36.39;100731.56;2089211;85;29838;-57
2022/06/10 09:48:11;;;;;;;3.72;2.50;;;;;;;28.87;36.14;100729.80;2090916;85;28320;-57
2022/06/10 09:51:37;;;;;;;4.10;2.30;;;;;;;28.66;36.47;100735.98;2056802;86;28732;-57
2022/06/10 09:55:06;;;;;;;2.95;2.50;;;;;;;28.49;36.46;100735.23;2056888;86;32240;-57
2022/06/10 09:58:36;;;;;;;2.98;2.40;;;;;;;28.20;36.40;100724.42;2056675;86;34386;-57
2022/06/10 10:02:29;;;;;;;2.98;2.22;;;;;;;27.98;36.72;100727.45;1991694;88;29511;-57
2022/06/10 10:05:54;;;;;;;3.22;2.37;;;;;;;27.60;36.83;100731.75;1990257;89;27732;-57
2022/06/10 10:09:18;;;;;;;4.55;2.27;;;;;;;27.19;37.01;100728.22;1991724;88;29657;-56
2022/06/10 10:12:38;;;;;;;3.70;2.25;;;;;;;27.07;37.31;100729.97;1991192;89;31812;-58
2022/06/10 10:15:58;;;;;;;3.75;1.98;;;;;;;26.99;37.33;100721.72;1991442;89;33053;-58
2022/06/10 10:19:24;;;;;;;2.75;2.08;;;;;;;26.94;37.69;100723.62;1991351;89;28730;-57
2022/06/10 10:22:54;;;;;;;3.33;2.27;;;;;;;26.92;38.05;100718.81;2034012;87;27737;-57
2022/06/10 10:25:58;;;;;;;3.72;2.33;;;;;;;26.86;38.08;100718.65;2034279;87;28817;-58
2022/06/10 10:29:15;;;;;;;4.58;2.08;;;;;;;26.83;38.37;100723.46;2057453;86;34804;-59
2022/06/10 10:32:28;;;;;;;4.65;2.22;;;;;;;26.86;38.52;100725.52;2013771;88;34183;-58
2022/06/10 10:35:50;;;;;;;2.95;2.10;;;;;;;26.73;37.78;100721.38;2013589;88;29776;-58
2022/06/10 10:38:53;;;;;;;5.45;2.58;;;;;;;26.56;38.05;100718.28;2014446;88;28288;-58
2022/06/10 10:42:01;;;;;;;3.22;2.40;;;;;;;26.43;38.54;100716.91;2014233;87;29627;-59
2022/06/10 10:45:21;;;;;;;2.58;2.20;;;;;;;26.38;38.54;100716.06;2014557;88;31130;-58
2022/06/10 10:48:46;;;;;;;2.47;1.82;;;;;;;26.37;39.22;100712.96;2014112;88;33041;-56
2022/06/10 10:51:50;;;;;;;3.10;1.72;;;;;;;26.40;38.82;100713.12;2013754;88;30220;-58
2022/06/10 10:55:15;;;;;;;2.52;1.70;;;;;;;26.28;38.86;100726.86;1974572;90;27293;-57
2022/06/10 10:58:24;;;;;;;3.08;2.20;;;;;;;26.23;39.07;100713.11;1983904;86;29167;-57
2022/06/10 11:01:43;;;;;;;2.42;1.72;;;;;;;26.21;38.49;100711.56;1986709;88;31096;-57
2022/06/10 11:04:46;;;;;;;2.62;1.75;;;;;;;26.28;39.20;100715.34;2012225;88;33433;-57
2022/06/10 11:08:11;;;;;;;1.95;1.77;;;;;;;26.38;38.93;100713.81;2012260;88;30109;-57
2022/06/10 11:11:19;;;;;;;2.98;1.62;;;;;;;26.47;39.11;100713.30;2041200;86;27771;-58
2022/06/10 11:14:34;;;;;;;1.57;1.47;;;;;;;26.43;38.82;100716.91;2077872;85;29686;-58
2022/06/10 11:17:40;;;;;;;2.30;1.40;;;;;;;26.17;38.37;100712.39;2038779;87;31602;-59
2022/06/10 11:20:42;;;;;;;2.05;1.17;;;;;;;26.13;38.70;100715.66;2075801;84;33404;-58
2022/06/10 11:23:55;;;;;;;2.00;1.30;;;;;;;25.95;37.93;100708.37;2109501;84;30201;-58
2022/06/10 11:27:02;;;;;;;1.80;1.25;;;;;;;25.85;38.49;100715.37;2109783;84;27791;-57
2022/06/10 11:30:18;;;;;;;3.62;1.52;;;;;;;25.77;37.43;100718.10;2109833;84;29445;-58
2022/06/10 11:33:35;;;;;;;3.00;1.20;;;;;;;25.75;38.11;100713.29;2109760;84;31012;-57
2022/06/10 11:36:48;;;;;;;1.22;1.12;;;;;;;25.77;37.95;100712.61;2108901;84;33208;-57
2022/06/10 11:39:56;;;;;;;1.47;0.90;;;;;;;25.81;37.54;100711.27;2109828;84;29387;-58
2022/06/10 11:43:12;;;;;;;3.20;1.10;;;;;;;25.82;37.52;100707.99;2101063;83;27802;-58
2022/06/10 11:46:46;;;;;;;0.85;0.80;;;;;;;25.75;36.15;100709.17;2098165;84;29630;-62
2022/06/10 11:49:58;;;;;;;2.22;1.35;;;;;;;25.69;36.20;100707.95;2045066;87;32060;-57
2022/06/10 11:53:26;;;;;;;2.50;0.90;;;;;;;25.55;36.11;100703.09;2045208;87;32974;-57
2022/06/10 12:00:10;;;;;;;8.53;1.40;;;;;;;25.39;36.05;100707.45;2068990;86;27792;-58
2022/06/10 12:03:30;;;;;;;3.50;1.00;;;;;;;25.37;36.21;100704.50;2068750;86;28701;-57
2022/06/10 12:06:41;;;;;;;1.30;1.00;;;;;;;25.33;36.68;100702.08;2069036;86;31046;-58
2022/06/10 12:09:51;;;;;;;3.30;1.00;;;;;;;25.31;36.84;100700.04;2069172;86;32957;-57
2022/06/10 12:12:56;;;;;;;2.52;1.00;;;;;;;25.23;36.25;100695.02;2069121;86;29967;-58
2022/06/10 12:15:58;;;;;;;;;;;;;;;25.14;36.45;100699.07;2047892;86;27779;-57
2022/06/10 12:19:05;;;;;;;2.98;1.10;;;;;;;25.14;36.90;100703.70;2068710;86;28829;-58
2022/06/10 12:22:25;;;;;;;2.77;1.07;;;;;;;25.15;37.28;100702.69;2068908;86;31816;-58
2022/06/10 12:26:07;;;;;;;1.00;0.90;;;;;;;25.23;37.47;100697.23;2105349;83;28249;-57
2022/06/10 12:30:02;;;;;;;0.70;0.70;;;;;;;25.29;36.88;100702.58;2080620;85;29403;-57
2022/06/10 12:33:35;;;;;;;2.42;1.10;;;;;;;25.32;36.46;100697.62;2088574;85;27703;-58
2022/06/10 12:37:10;;;;;;;1.55;0.78;;;;;;;25.28;36.62;100696.74;2088424;84;28754;-58
2022/06/10 12:40:40;;;;;;;2.52;0.90;;;;;;;25.31;36.91;100706.02;2106117;84;32106;-57
2022/06/10 12:43:56;;;;;;;2.45;1.10;;;;;;;25.31;36.51;100701.91;2098231;83;33118;-58
2022/06/10 12:47:03;;;;;;;1.27;0.90;;;;;;;25.24;35.25;100699.45;2099411;84;29216;-58
2022/06/10 12:50:31;;;;;;;2.10;0.70;;;;;;;25.17;35.74;100693.27;2099658;84;27730;-61
2022/06/10 12:53:49;;;;;;;1.00;0.80;;;;;;;25.14;35.95;100695.48;2120062;83;29474;-59
2022/06/10 12:57:29;;;;;;;2.58;0.82;;;;;;;25.16;36.16;100688.80;2121959;83;31171;-59
2022/06/10 13:00:42;;;;;;;3.33;0.88;;;;;;;25.22;36.65;100691.41;2142402;82;34367;-58
2022/06/10 13:03:44;;;;;;;1.00;0.85;;;;;;;25.29;35.95;100688.37;2178254;81;29336;-58
2022/06/10 13:06:57;;;;;;;2.90;0.90;;;;;;;25.27;35.75;100689.53;2143541;83;28206;-58
2022/06/10 13:10:13;;;;;;;5.05;1.15;;;;;;;25.27;35.48;100687.67;2142501;83;28148;-58
2022/06/10 13:13:23;;;;;;;2.67;1.10;;;;;;;25.16;35.76;100686.06;2136509;82;31267;-59
2022/06/10 13:16:40;;;;;;;2.80;1.00;;;;;;;25.07;35.71;100692.50;2166415;82;33569;-60
2022/06/10 13:20:02;;;;;;;3.92;1.20;;;;;;;25.06;35.96;100685.33;2165988;82;29515;-58
2022/06/10 13:23:26;;;;;;;3.05;1.15;;;;;;;25.07;35.80;100681.53;2180765;81;27877;-60
2022/06/10 13:26:30;;;;;;;4.15;0.80;;;;;;;25.04;35.81;100684.63;2181520;81;28855;-61
2022/06/10 13:29:32;;;;;;;3.37;1.32;;;;;;;24.94;36.28;100678.38;2181640;81;31432;-64
2022/06/10 13:32:36;;;;;;;2.83;1.00;;;;;;;24.89;36.64;100680.23;2181434;81;33929;-59
2022/06/10 13:35:53;;;;;;;4.12;1.10;;;;;;;24.88;36.58;100686.73;2156557;81;30511;-61
2022/06/10 13:38:57;;;;;;;4.17;1.17;;;;;;;24.95;36.77;100680.09;2181520;81;27756;-59
2022/06/10 13:42:00;;;;;;;1.67;1.00;;;;;;;25.11;37.02;100686.20;2181561;81;28649;-58
2022/06/10 13:45:16;;;;;;;4.05;1.20;;;;;;;25.26;35.99;100684.58;2181670;81;32066;-59
2022/06/10 13:48:22;;;;;;;1.20;1.00;;;;;;;25.35;36.56;100682.73;2169989;81;33899;-64
2022/06/10 13:51:28;;;;;;;1.95;0.95;;;;;;;25.51;36.60;100684.71;2170324;81;29512;-58
2022/06/10 13:54:31;;;;;;;6.08;1.27;;;;;;;25.59;36.48;100679.77;2169551;82;27739;-58
2022/06/10 13:57:36;;;;;;;2.77;1.00;;;;;;;25.61;36.62;100692.81;2168683;82;27676;-56
2022/06/10 14:00:49;;;;;;;4.00;1.00;;;;;;;25.56;36.66;100680.97;2177620;81;31168;-62
2022/06/10 14:04:03;;;;;;;1.70;1.17;;;;;;;25.59;36.86;100679.27;2181702;81;33835;-59
2022/06/10 14:07:13;;;;;;;2.47;1.30;;;;;;;25.67;36.99;100684.42;2182123;81;30229;-60
2022/06/10 14:10:26;;;;;;;1.98;1.27;;;;;;;25.63;36.51;100683.41;2178490;81;27813;-59
2022/06/10 14:13:28;;;;;;;6.20;1.30;;;;;;;25.60;36.41;100686.48;2167934;81;28833;-58
2022/06/10 14:16:33;;;;;;;2.47;1.30;;;;;;;25.63;36.35;100682.53;2182104;81;32189;-59
2022/06/10 14:19:43;;;;;;;1.15;1.02;;;;;;;25.62;36.24;100676.70;2181646;81;33838;-59
2022/06/10 14:22:48;;;;;;;2.62;1.10;;;;;;;25.59;35.79;100683.39;2149546;82;30777;-58
2022/06/10 14:26:15;;;;;;;1.80;0.98;;;;;;;25.51;36.46;100679.75;2149793;82;28262;-59
2022/06/10 14:29:22;;;;;;;2.00;1.10;;;;;;;25.47;35.83;100678.70;2149618;82;29815;-59
2022/06/10 14:32:32;;;;;;;3.05;1.40;;;;;;;25.43;36.32;100673.19;2182073;81;31851;-59
2022/06/10 14:35:41;;;;;;;4.12;1.10;;;;;;;25.47;36.17;100675.96;2182052;81;32964;-57
2022/06/10 14:38:44;;;;;;;6.03;1.10;;;;;;;25.50;36.03;100675.28;2149937;82;29324;-59
2022/06/10 14:41:57;;;;;;;2.15;1.00;;;;;;;25.54;35.49;100674.78;2182271;80;27673;-59
2022/06/10 14:44:59;;;;;;;3.33;1.40;;;;;;;25.57;36.07;100666.72;2143565;83;29090;-62
2022/06/10 14:48:10;;;;;;;1.32;1.10;;;;;;;25.58;35.55;100667.08;2142438;83;32172;-62
2022/06/10 14:51:35;;;;;;;2.22;1.10;;;;;;;25.56;35.69;100666.41;2178527;81;33028;-59
2022/06/10 14:54:39;;;;;;;2.00;1.00;;;;;;;25.56;35.72;100657.65;2177989;81;29332;-60
2022/06/10 14:57:49;;;;;;;1.75;0.90;;;;;;;25.57;35.60;100661.23;2178817;81;27642;-59
2022/06/10 15:00:52;;;;;;;2.60;1.20;;;;;;;25.53;35.39;100662.09;2178052;81;29788;-58
2022/06/10 15:03:55;;;;;;;1.47;0.93;;;;;;;25.46;35.22;100667.37;2178491;81;31040;-59
2022/06/10 15:07:00;;;;;;;3.42;1.15;;;;;;;25.43;35.47;100659.48;2178457;81;34074;-59